Time;durP1;ratioP1;P1;durP2;ratioP2;P2;SDS_P1;SDS_P2;PMS_P1;PMS_P2;Temp;Humidity;BMP_temperature;BMP_pressure;BME280_temperature;BME280_humidity;BME280_pressure;Samples;Min_cycle;Max_cycle;Signal;HPM_P1;HPM_P2
2021/12/03 00:01:49;;;;;;;17.63;3.97;;;;;;;;;;5053757;28;20813;-88
2021/12/03 00:04:14;;;;;;;7.47;1.63;;;;;;;;;;5057471;28;20103;-88
2021/12/03 00:06:40;;;;;;;12.30;1.90;;;;;;;;;;5054984;28;20466;-89
2021/12/03 00:09:06;;;;;;;11.52;1.50;;;;;;;;;;5054934;28;20024;-88
2021/12/03 00:11:31;;;;;;;4.70;1.30;;;;;;;;;;5054732;28;20454;-88
2021/12/03 00:13:57;;;;;;;13.40;2.55;;;;;;;;;;5054609;28;20028;-89
2021/12/03 00:16:22;;;;;;;6.35;1.63;;;;;;;;;;5072864;28;20067;-89
2021/12/03 00:18:47;;;;;;;14.10;1.77;;;;;;;;;;5072974;28;20036;-89
2021/12/03 00:21:12;;;;;;;8.27;1.40;;;;;;;;;;5055194;28;20021;-89
2021/12/03 00:23:38;;;;;;;4.55;1.55;;;;;;;;;;5072984;28;20025;-88
2021/12/03 00:26:05;;;;;;;6.22;1.30;;;;;;;;;;5072513;28;20025;-89
2021/12/03 00:28:31;;;;;;;4.82;1.35;;;;;;;;;;5072642;28;20028;-88
2021/12/03 00:30:57;;;;;;;4.60;1.20;;;;;;;;;;5054470;28;20759;-89
2021/12/03 00:33:22;;;;;;;8.05;1.20;;;;;;;;;;5057840;28;20033;-88
2021/12/03 00:35:47;;;;;;;6.85;1.35;;;;;;;;;;5072850;28;20373;-88
2021/12/03 00:38:15;;;;;;;13.50;1.77;;;;;;;;;;5072374;28;20089;-88
2021/12/03 00:40:40;;;;;;;7.15;1.90;;;;;;;;;;5072325;28;20036;-88
2021/12/03 00:43:07;;;;;;;11.45;1.52;;;;;;;;;;5072019;28;20471;-88
2021/12/03 00:45:32;;;;;;;11.18;2.08;;;;;;;;;;5054060;28;20025;-88
2021/12/03 00:47:58;;;;;;;7.05;1.70;;;;;;;;;;5072304;28;20035;-88
2021/12/03 00:50:24;;;;;;;9.70;1.45;;;;;;;;;;5053781;28;20493;-89
2021/12/03 00:52:50;;;;;;;13.95;2.15;;;;;;;;;;5053995;28;20032;-89
2021/12/03 00:55:16;;;;;;;8.63;1.92;;;;;;;;;;5072259;28;20801;-89
2021/12/03 00:57:41;;;;;;;13.45;2.05;;;;;;;;;;5072221;28;20013;-89
2021/12/03 01:15:26;;;;;;;17.67;2.58;;;;;;;;;;5072653;28;20119;-88
2021/12/03 01:17:51;;;;;;;19.45;1.52;;;;;;;;;;5073121;28;20024;-88
2021/12/03 01:20:17;;;;;;;11.07;1.52;;;;;;;;;;5071515;28;20724;-89
2021/12/03 01:22:43;;;;;;;10.57;1.70;;;;;;;;;;5071423;28;20074;-88
2021/12/03 01:25:09;;;;;;;11.77;1.92;;;;;;;;;;5053416;28;20024;-88
2021/12/03 01:27:35;;;;;;;4.90;1.27;;;;;;;;;;5053085;28;20025;-88
2021/12/03 01:30:00;;;;;;;14.43;1.42;;;;;;;;;;5053210;28;20074;-88
2021/12/03 01:32:25;;;;;;;9.80;1.83;;;;;;;;;;5052987;28;20062;-88
2021/12/03 01:34:50;;;;;;;11.77;4.00;;;;;;;;;;5071053;28;20099;-88
2021/12/03 01:37:16;;;;;;;12.43;2.50;;;;;;;;;;5053054;28;20063;-88
2021/12/03 01:39:41;;;;;;;12.05;2.20;;;;;;;;;;5071145;28;20179;-88
2021/12/03 01:42:06;;;;;;;11.20;2.08;;;;;;;;;;5052939;28;20024;-88
2021/12/03 01:44:31;;;;;;;11.63;1.88;;;;;;;;;;5053455;28;20034;-88
2021/12/03 01:46:56;;;;;;;6.97;1.30;;;;;;;;;;5070883;28;20051;-89
2021/12/03 01:49:23;;;;;;;3.60;1.55;;;;;;;;;;5070923;28;20395;-89
2021/12/03 01:51:48;;;;;;;8.15;1.25;;;;;;;;;;5052799;28;20051;-89
2021/12/03 01:54:14;;;;;;;4.13;1.27;;;;;;;;;;5052979;28;20021;-88
2021/12/03 01:56:39;;;;;;;8.90;1.58;;;;;;;;;;5070849;28;20499;-89
2021/12/03 01:59:06;;;;;;;8.45;1.52;;;;;;;;;;5052686;28;20020;-88
2021/12/03 02:01:32;;;;;;;9.82;1.42;;;;;;;;;;5070644;28;20021;-88
2021/12/03 02:03:58;;;;;;;7.88;1.33;;;;;;;;;;5052689;28;20469;-88
2021/12/03 02:06:24;;;;;;;14.68;2.47;;;;;;;;;;5070619;28;20028;-89
2021/12/03 02:08:50;;;;;;;8.48;1.45;;;;;;;;;;5070487;28;20404;-89
2021/12/03 02:11:16;;;;;;;5.32;1.30;;;;;;;;;;5053167;28;20017;-88
2021/12/03 02:13:41;;;;;;;6.95;1.52;;;;;;;;;;5052081;28;20031;-89
2021/12/03 02:16:07;;;;;;;12.10;1.50;;;;;;;;;;5070450;28;20025;-89
2021/12/03 02:18:33;;;;;;;12.80;2.03;;;;;;;;;;5070286;28;20024;-88
2021/12/03 02:20:59;;;;;;;9.40;1.90;;;;;;;;;;5070481;28;20039;-89
2021/12/03 02:23:25;;;;;;;14.45;2.13;;;;;;;;;;5070118;28;20020;-89
2021/12/03 02:25:51;;;;;;;12.93;1.95;;;;;;;;;;5052198;28;20071;-89
2021/12/03 02:28:17;;;;;;;12.75;2.78;;;;;;;;;;5052120;28;20053;-88
2021/12/03 02:30:42;;;;;;;16.13;2.17;;;;;;;;;;5052576;28;20133;-88
2021/12/03 02:33:08;;;;;;;13.63;1.60;;;;;;;;;;5070244;28;20028;-86
2021/12/03 02:35:33;;;;;;;15.23;2.05;;;;;;;;;;5070299;28;20119;-88
2021/12/03 02:37:58;;;;;;;14.60;1.90;;;;;;;;;;5051837;28;20415;-89
2021/12/03 02:40:25;;;;;;;15.38;2.20;;;;;;;;;;5052306;28;20030;-89
2021/12/03 02:42:51;;;;;;;20.38;2.40;;;;;;;;;;5052920;28;20112;-89
2021/12/03 02:45:17;;;;;;;14.63;2.67;;;;;;;;;;5070491;28;20111;-90
2021/12/03 02:47:42;;;;;;;11.23;1.67;;;;;;;;;;5070573;28;20022;-90
2021/12/03 02:50:08;;;;;;;9.98;2.60;;;;;;;;;;5052586;28;20031;-90
2021/12/03 02:52:34;;;;;;;12.00;3.05;;;;;;;;;;5070779;28;20132;-90
2021/12/03 02:54:59;;;;;;;23.73;3.55;;;;;;;;;;5052533;28;20860;-90
2021/12/03 02:57:25;;;;;;;12.27;1.98;;;;;;;;;;5052753;28;20488;-90
2021/12/03 02:59:50;;;;;;;15.30;3.25;;;;;;;;;;5070812;28;20028;-90
2021/12/03 03:02:15;;;;;;;15.65;1.85;;;;;;;;;;5070773;28;20056;-90
2021/12/03 03:04:40;;;;;;;18.48;2.60;;;;;;;;;;5052285;28;20021;-90
2021/12/03 03:07:06;;;;;;;17.88;1.92;;;;;;;;;;5070472;28;20024;-90
2021/12/03 03:09:32;;;;;;;15.82;1.60;;;;;;;;;;5071950;28;20016;-89
2021/12/03 03:11:57;;;;;;;12.93;2.13;;;;;;;;;;5079609;28;20078;-89
2021/12/03 03:14:23;;;;;;;14.80;1.90;;;;;;;;;;5057568;28;20025;-90
2021/12/03 03:16:48;;;;;;;13.48;1.85;;;;;;;;;;5070607;28;20024;-90
2021/12/03 03:19:16;;;;;;;16.95;1.92;;;;;;;;;;5052455;28;20021;-90
2021/12/03 03:21:41;;;;;;;14.23;2.58;;;;;;;;;;5051923;28;20027;-90
2021/12/03 03:24:07;;;;;;;11.30;1.85;;;;;;;;;;5052160;28;20017;-90
2021/12/03 03:26:37;;;;;;;14.65;2.03;;;;;;;;;;5052675;28;20024;-90
2021/12/03 03:29:04;;;;;;;14.82;2.17;;;;;;;;;;5052023;28;20521;-89
2021/12/03 03:31:29;;;;;;;12.65;1.95;;;;;;;;;;5070218;28;20035;-90
2021/12/03 03:33:54;;;;;;;16.60;2.22;;;;;;;;;;5052013;28;20024;-90
2021/12/03 03:36:19;;;;;;;16.57;2.37;;;;;;;;;;5071468;28;20021;-90
2021/12/03 03:38:45;;;;;;;18.55;2.22;;;;;;;;;;5073870;28;20365;-90
2021/12/03 03:41:10;;;;;;;15.98;2.53;;;;;;;;;;5059402;28;20060;-89
2021/12/03 03:43:35;;;;;;;13.10;2.35;;;;;;;;;;5074951;28;20016;-90
2021/12/03 03:46:00;;;;;;;18.35;1.85;;;;;;;;;;5073986;28;20099;-89
2021/12/03 03:48:25;;;;;;;15.88;1.90;;;;;;;;;;5055393;28;20027;-89
2021/12/03 03:50:51;;;;;;;14.27;1.73;;;;;;;;;;5073458;28;20070;-89
2021/12/03 03:53:16;;;;;;;17.65;1.80;;;;;;;;;;5073537;28;20047;-89
2021/12/03 03:55:41;;;;;;;15.10;1.98;;;;;;;;;;5055476;28;20016;-89
2021/12/03 03:58:07;;;;;;;15.05;1.85;;;;;;;;;;5073761;28;20104;-89
2021/12/03 04:00:34;;;;;;;15.75;2.55;;;;;;;;;;5055359;28;20108;-89
2021/12/03 04:03:00;;;;;;;18.48;2.08;;;;;;;;;;5073384;28;20473;-90
2021/12/03 04:05:25;;;;;;;20.35;3.63;;;;;;;;;;5073547;28;20024;-90
2021/12/03 04:07:50;;;;;;;12.40;1.90;;;;;;;;;;5073309;28;20038;-89
2021/12/03 04:10:16;;;;;;;14.50;2.25;;;;;;;;;;5055764;28;20207;-90
2021/12/03 04:12:41;;;;;;;12.93;1.88;;;;;;;;;;5073188;28;20373;-90
2021/12/03 04:15:07;;;;;;;16.40;1.88;;;;;;;;;;5057069;28;20034;-89
2021/12/03 04:17:33;;;;;;;9.55;1.95;;;;;;;;;;5073270;28;20016;-90
2021/12/03 04:19:58;;;;;;;16.02;2.33;;;;;;;;;;5055236;28;20369;-90
2021/12/03 04:22:24;;;;;;;10.05;2.30;;;;;;;;;;5072989;28;20028;-90
2021/12/03 04:24:50;;;;;;;24.73;2.58;;;;;;;;;;5073073;28;20024;-90
2021/12/03 04:27:16;;;;;;;20.77;1.90;;;;;;;;;;5073247;28;20464;-90
2021/12/03 04:29:41;;;;;;;14.85;1.98;;;;;;;;;;5072946;28;20017;-90
2021/12/03 04:32:08;;;;;;;14.57;2.30;;;;;;;;;;5054933;28;20035;-90
2021/12/03 04:34:33;;;;;;;8.63;1.98;;;;;;;;;;5072788;28;20042;-90
2021/12/03 04:36:58;;;;;;;8.15;1.55;;;;;;;;;;5072822;28;20021;-90
2021/12/03 04:39:23;;;;;;;12.30;1.95;;;;;;;;;;5054545;28;20124;-90
2021/12/03 04:41:49;;;;;;;14.75;2.20;;;;;;;;;;5054734;28;20025;-90
2021/12/03 04:44:14;;;;;;;16.42;2.75;;;;;;;;;;5055150;28;20112;-90
2021/12/03 04:46:39;;;;;;;15.00;2.13;;;;;;;;;;5057088;28;20510;-90
2021/12/03 04:49:04;;;;;;;13.82;3.15;;;;;;;;;;5054559;28;20024;-90
2021/12/03 04:51:29;;;;;;;13.82;2.42;;;;;;;;;;5072899;28;20020;-90
2021/12/03 04:53:55;;;;;;;12.15;2.53;;;;;;;;;;5054552;28;20035;-90
2021/12/03 04:56:20;;;;;;;10.02;2.80;;;;;;;;;;5072433;28;20021;-90
2021/12/03 04:58:45;;;;;;;16.57;3.13;;;;;;;;;;5072427;28;20020;-90
2021/12/03 05:01:10;;;;;;;10.02;2.38;;;;;;;;;;5072817;28;20266;-90
2021/12/03 05:03:37;;;;;;;12.48;2.38;;;;;;;;;;5072670;28;20638;-90
2021/12/03 05:06:03;;;;;;;8.77;1.88;;;;;;;;;;5072394;28;20123;-90
2021/12/03 05:08:29;;;;;;;21.40;2.90;;;;;;;;;;5072129;28;20034;-90
2021/12/03 05:10:55;;;;;;;20.98;3.40;;;;;;;;;;5072330;28;20119;-90
2021/12/03 05:13:22;;;;;;;10.25;2.40;;;;;;;;;;5072255;28;20040;-89
2021/12/03 05:15:47;;;;;;;18.63;3.00;;;;;;;;;;5053897;28;20063;-89
2021/12/03 05:18:13;;;;;;;20.57;3.60;;;;;;;;;;5071609;28;20056;-89
2021/12/03 05:20:39;;;;;;;19.30;3.10;;;;;;;;;;5072134;28;20622;-90
2021/12/03 05:23:04;;;;;;;14.15;2.88;;;;;;;;;;5071724;28;20099;-90
2021/12/03 05:25:30;;;;;;;10.65;1.98;;;;;;;;;;5053756;28;20017;-90
2021/12/03 05:27:56;;;;;;;8.13;1.52;;;;;;;;;;5061759;28;20033;-90
2021/12/03 05:30:21;;;;;;;7.68;1.30;;;;;;;;;;5047876;28;20029;-89
2021/12/03 05:32:47;;;;;;;9.80;1.27;;;;;;;;;;5045310;28;20040;-89
2021/12/03 05:35:12;;;;;;;7.78;1.33;;;;;;;;;;5029366;28;20025;-89
2021/12/03 05:37:38;;;;;;;9.63;1.70;;;;;;;;;;5050185;28;20049;-89
2021/12/03 05:40:04;;;;;;;12.65;1.63;;;;;;;;;;5033598;28;20116;-89
2021/12/03 05:42:30;;;;;;;5.97;1.20;;;;;;;;;;5040010;28;20364;-89
2021/12/03 05:44:55;;;;;;;6.65;1.85;;;;;;;;;;5038596;28;20025;-88
2021/12/03 05:47:21;;;;;;;6.88;1.45;;;;;;;;;;5037416;28;20025;-88
2021/12/03 05:49:46;;;;;;;8.73;1.27;;;;;;;;;;5039982;28;20052;-89
2021/12/03 05:52:11;;;;;;;8.25;1.70;;;;;;;;;;5021360;28;20110;-90
2021/12/03 05:54:37;;;;;;;8.95;2.20;;;;;;;;;;5013325;28;20477;-90
2021/12/03 05:57:02;;;;;;;13.70;1.63;;;;;;;;;;5013746;28;20795;-90
2021/12/03 05:59:27;;;;;;;6.35;1.52;;;;;;;;;;5011773;28;20040;-89
2021/12/03 06:01:53;;;;;;;9.87;1.53;;;;;;;;;;5030020;28;20380;-89
2021/12/03 06:04:20;;;;;;;11.00;1.35;;;;;;;;;;5012177;28;20275;-90
2021/12/03 06:06:47;;;;;;;7.78;1.88;;;;;;;;;;5012833;28;20373;-89
2021/12/03 06:09:12;;;;;;;8.02;1.35;;;;;;;;;;5012762;28;20109;-90
2021/12/03 06:11:38;;;;;;;13.40;1.40;;;;;;;;;;5012760;28;20456;-89
2021/12/03 06:14:04;;;;;;;12.30;1.63;;;;;;;;;;5030349;28;20021;-90
2021/12/03 06:16:30;;;;;;;7.70;1.25;;;;;;;;;;5030188;28;20025;-90
2021/12/03 06:18:55;;;;;;;8.57;1.40;;;;;;;;;;5030260;28;20028;-90
2021/12/03 06:21:20;;;;;;;7.10;1.40;;;;;;;;;;5030380;28;20664;-89
2021/12/03 06:23:47;;;;;;;11.45;1.50;;;;;;;;;;5011756;28;20066;-90
2021/12/03 06:26:12;;;;;;;7.18;1.17;;;;;;;;;;5012437;28;20458;-89
2021/12/03 06:28:39;;;;;;;8.45;1.25;;;;;;;;;;5012189;28;20052;-90
2021/12/03 06:31:04;;;;;;;10.80;1.75;;;;;;;;;;5012438;28;20064;-89
2021/12/03 06:33:30;;;;;;;6.90;1.30;;;;;;;;;;5012998;28;20053;-89
2021/12/03 06:35:56;;;;;;;11.35;2.15;;;;;;;;;;5012528;28;20555;-89
2021/12/03 06:38:21;;;;;;;6.65;2.22;;;;;;;;;;5019218;28;20060;-89
2021/12/03 06:40:48;;;;;;;8.57;1.50;;;;;;;;;;5013932;28;20025;-89
2021/12/03 06:43:13;;;;;;;6.22;1.80;;;;;;;;;;5025524;28;20021;-89
2021/12/03 06:45:38;;;;;;;9.20;1.45;;;;;;;;;;5038184;28;20091;-89
2021/12/03 06:48:04;;;;;;;10.52;1.55;;;;;;;;;;5018700;28;20023;-89
2021/12/03 06:50:31;;;;;;;15.18;2.55;;;;;;;;;;5044855;28;20067;-89
2021/12/03 06:53:05;;;;;;;6.30;1.48;;;;;;;;;;5011469;28;20108;-89
2021/12/03 06:55:48;;;;;;;7.22;1.67;;;;;;;;;;5028869;28;20524;-89
2021/12/03 06:58:17;;;;;;;13.70;2.42;;;;;;;;;;5021886;28;20022;-89
2021/12/03 07:00:44;;;;;;;12.98;2.45;;;;;;;;;;5011652;28;20095;-89
2021/12/03 07:03:09;;;;;;;16.60;2.97;;;;;;;;;;5028907;28;20022;-89
2021/12/03 07:05:34;;;;;;;10.27;2.20;;;;;;;;;;5011498;28;20041;-89
2021/12/03 07:07:59;;;;;;;16.70;2.97;;;;;;;;;;5026074;28;20029;-89
2021/12/03 07:10:25;;;;;;;14.18;2.20;;;;;;;;;;5034845;28;20132;-89
2021/12/03 07:12:50;;;;;;;15.45;2.83;;;;;;;;;;5035584;28;20059;-89
2021/12/03 07:15:16;;;;;;;16.05;2.65;;;;;;;;;;5028620;28;20025;-89
2021/12/03 07:17:41;;;;;;;11.27;2.35;;;;;;;;;;5042552;28;20465;-89
2021/12/03 07:20:07;;;;;;;8.65;2.08;;;;;;;;;;5039257;28;20021;-89
2021/12/03 07:22:33;;;;;;;10.77;2.25;;;;;;;;;;5050280;28;20024;-89
2021/12/03 07:24:58;;;;;;;13.80;1.95;;;;;;;;;;5054285;28;20043;-89
2021/12/03 07:27:23;;;;;;;11.63;2.60;;;;;;;;;;5047507;28;20032;-89
2021/12/03 07:29:49;;;;;;;14.52;1.90;;;;;;;;;;5024112;28;20025;-89
2021/12/03 07:32:18;;;;;;;10.35;1.60;;;;;;;;;;5014558;28;20069;-89
2021/12/03 07:34:44;;;;;;;11.18;2.30;;;;;;;;;;5033069;28;20021;-89
2021/12/03 07:37:10;;;;;;;25.90;2.88;;;;;;;;;;5034258;28;20021;-89
2021/12/03 07:39:35;;;;;;;17.25;3.65;;;;;;;;;;5043142;28;20105;-89
2021/12/03 07:42:00;;;;;;;11.82;1.70;;;;;;;;;;5032381;28;20037;-89
2021/12/03 07:44:25;;;;;;;16.02;2.00;;;;;;;;;;5030231;28;20102;-89
2021/12/03 07:46:50;;;;;;;12.13;2.10;;;;;;;;;;5015499;28;20017;-89
2021/12/03 07:49:16;;;;;;;16.13;2.22;;;;;;;;;;5014878;28;20026;-89
2021/12/03 07:51:41;;;;;;;7.18;1.88;;;;;;;;;;5041752;28;20049;-89
2021/12/03 07:54:07;;;;;;;13.65;2.53;;;;;;;;;;5052096;28;20695;-89
2021/12/03 07:56:32;;;;;;;7.90;1.88;;;;;;;;;;5051701;28;20028;-89
2021/12/03 07:58:57;;;;;;;16.48;2.35;;;;;;;;;;5052066;28;20874;-88
2021/12/03 08:01:24;;;;;;;20.95;3.08;;;;;;;;;;5027067;28;20024;-89
2021/12/03 08:03:49;;;;;;;11.23;2.65;;;;;;;;;;5024666;28;20017;-88
2021/12/03 08:06:14;;;;;;;16.45;2.03;;;;;;;;;;5020369;28;20025;-89
2021/12/03 08:08:41;;;;;;;13.07;2.25;;;;;;;;;;5015595;28;20029;-89
2021/12/03 08:11:06;;;;;;;15.80;2.20;;;;;;;;;;5033976;28;20033;-89
2021/12/03 08:13:31;;;;;;;17.20;3.08;;;;;;;;;;5034126;28;20039;-89
2021/12/03 08:16:00;;;;;;;8.48;2.17;;;;;;;;;;5034055;28;20107;-89
2021/12/03 08:18:26;;;;;;;17.10;2.20;;;;;;;;;;5035922;28;20104;-89
2021/12/03 08:20:52;;;;;;;20.27;3.60;;;;;;;;;;5051254;28;20137;-89
2021/12/03 08:23:18;;;;;;;15.07;2.58;;;;;;;;;;5044387;28;20018;-89
2021/12/03 08:25:43;;;;;;;18.95;2.47;;;;;;;;;;5013883;28;20396;-89
2021/12/03 08:28:09;;;;;;;13.90;2.33;;;;;;;;;;5013907;28;20022;-89
2021/12/03 08:30:34;;;;;;;13.43;2.13;;;;;;;;;;5032165;28;20469;-89
2021/12/03 08:32:59;;;;;;;13.45;2.28;;;;;;;;;;5029986;28;20037;-90
2021/12/03 08:35:25;;;;;;;20.98;2.90;;;;;;;;;;5031979;28;20025;-89
2021/12/03 08:37:51;;;;;;;23.25;3.17;;;;;;;;;;5014147;28;20129;-89
2021/12/03 08:40:17;;;;;;;12.80;3.05;;;;;;;;;;5031136;28;20030;-89
2021/12/03 08:42:42;;;;;;;16.42;3.92;;;;;;;;;;5032770;28;20021;-89
2021/12/03 08:45:08;;;;;;;18.77;2.50;;;;;;;;;;5051582;28;20036;-89
2021/12/03 08:47:35;;;;;;;17.25;3.28;;;;;;;;;;5024909;28;20020;-89
2021/12/03 08:50:03;;;;;;;23.45;3.05;;;;;;;;;;5013682;28;20021;-89
2021/12/03 08:55:04;;;;;;;17.90;3.33;;;;;;;;;;5031528;28;20117;-89
2021/12/03 08:57:31;;;;;;;10.98;3.75;;;;;;;;;;5018197;28;20029;-89
2021/12/03 08:59:57;;;;;;;20.45;3.35;;;;;;;;;;5024788;28;20021;-89
2021/12/03 09:02:23;;;;;;;14.10;3.30;;;;;;;;;;5032464;28;20021;-89
2021/12/03 09:04:49;;;;;;;15.18;2.97;;;;;;;;;;5012963;28;20037;-88
2021/12/03 09:07:14;;;;;;;14.25;3.28;;;;;;;;;;5030031;28;20022;-88
2021/12/03 09:09:40;;;;;;;9.38;2.88;;;;;;;;;;5039740;28;20020;-88
2021/12/03 09:12:05;;;;;;;11.88;3.25;;;;;;;;;;5049840;28;20044;-89
2021/12/03 09:14:39;;;;;;;15.55;2.65;;;;;;;;;;5049946;28;20032;-88
2021/12/03 09:19:43;;;;;;;21.38;3.25;;;;;;;;;;5041084;28;20108;-88
2021/12/03 09:22:10;;;;;;;11.25;2.90;;;;;;;;;;5011664;28;20512;-88
2021/12/03 09:24:37;;;;;;;8.65;2.90;;;;;;;;;;5046129;28;20052;-88
2021/12/03 09:27:03;;;;;;;13.43;2.65;;;;;;;;;;5033973;28;20368;-89
2021/12/03 09:29:33;;;;;;;10.27;2.80;;;;;;;;;;5031987;28;20033;-88
2021/12/03 09:31:59;;;;;;;14.30;2.75;;;;;;;;;;5019304;28;20893;-88
2021/12/03 09:34:25;;;;;;;14.45;2.55;;;;;;;;;;5029065;28;20021;-88
2021/12/03 09:36:51;;;;;;;16.33;3.20;;;;;;;;;;5030615;28;20492;-89
2021/12/03 09:39:22;;;;;;;15.50;3.13;;;;;;;;;;5024949;28;20052;-89
2021/12/03 09:41:48;;;;;;;12.15;2.22;;;;;;;;;;5028548;28;20032;-89
2021/12/03 09:44:13;;;;;;;8.10;1.75;;;;;;;;;;5011076;28;20021;-89
2021/12/03 09:46:39;;;;;;;8.15;1.10;;;;;;;;;;5027109;28;20116;-89
2021/12/03 09:51:34;;;;;;;7.03;1.00;;;;;;;;;;5048277;28;20034;-88
2021/12/03 09:56:29;;;;;;;5.70;1.38;;;;;;;;;;5049570;28;20036;-88
2021/12/03 10:01:30;;;;;;;4.82;1.13;;;;;;;;;;5035794;28;20096;-88
2021/12/03 10:15:24;;;;;;;5.15;1.65;;;;;;;;;;5033570;28;20020;-89
2021/12/03 10:18:03;;;;;;;6.03;1.52;;;;;;;;;;5048699;28;20048;-89
2021/12/03 10:26:42;;;;;;;8.40;1.63;;;;;;;;;;5069323;28;20111;-89
2021/12/03 10:35:27;;;;;;;8.85;1.63;;;;;;;;;;4967757;28;20118;-90
2021/12/03 10:38:04;;;;;;;4.90;2.00;;;;;;;;;;4972929;28;20105;-89
2021/12/03 10:49:04;;;;;;;14.05;2.80;;;;;;;;;;5009568;28;20060;-91
2021/12/03 10:54:19;;;;;;;14.95;4.00;;;;;;;;;;5023329;28;20083;-91
2021/12/03 10:57:11;;;;;;;10.77;3.42;;;;;;;;;;5012168;28;20029;-91
2021/12/03 11:42:20;;;;;;;9.00;4.28;;;;;;;;;;5030785;28;20029;-91
2021/12/03 13:08:19;;;;;;;51.10;19.10;;;;;;;;;;5051475;28;20396;-90
2021/12/03 13:22:20;;;;;;;39.00;14.75;;;;;;;;;;5049635;28;20215;-91
2021/12/03 13:28:12;;;;;;;34.70;16.45;;;;;;;;;;5051411;28;20428;-90
2021/12/03 14:00:49;;;;;;;78.90;31.58;;;;;;;;;;5051635;28;20114;-91
2021/12/03 14:40:53;;;;;;;132.57;41.55;;;;;;;;;;5049125;28;20029;-89
2021/12/03 14:45:39;;;;;;;81.88;32.08;;;;;;;;;;5050273;28;20025;-86
2021/12/03 14:56:03;;;;;;;75.67;29.37;;;;;;;;;;5049532;28;20047;-87
2021/12/03 15:03:50;;;;;;;73.15;32.50;;;;;;;;;;5049705;28;20029;-87
2021/12/03 15:09:09;;;;;;;104.75;37.13;;;;;;;;;;5050090;28;20104;-87
2021/12/03 15:28:39;;;;;;;79.72;31.70;;;;;;;;;;5062401;28;20036;-87
2021/12/03 15:31:04;;;;;;;79.18;32.08;;;;;;;;;;5049653;28;20029;-87
2021/12/03 15:33:49;;;;;;;93.82;33.15;;;;;;;;;;5035368;28;20033;-87
2021/12/03 15:39:16;;;;;;;71.88;30.65;;;;;;;;;;5031241;28;20119;-88
2021/12/03 16:03:53;;;;;;;83.60;34.75;;;;;;;;;;5052344;28;20027;-88
2021/12/03 16:06:27;;;;;;;67.82;31.20;;;;;;;;;;5052311;28;20025;-88
2021/12/03 16:08:54;;;;;;;43.50;25.75;;;;;;;;;;5036808;28;20020;-87
2021/12/03 16:11:37;;;;;;;68.45;28.65;;;;;;;;;;5072074;28;20025;-87
2021/12/03 16:14:53;;;;;;;76.55;29.77;;;;;;;;;;5055590;28;20052;-88
2021/12/03 16:17:05;;;;;;;54.50;27.88;;;;;;;;;;5043899;28;20052;-88
2021/12/03 16:22:41;;;;;;;62.17;28.17;;;;;;;;;;5021489;28;20760;-88
2021/12/03 16:25:39;;;;;;;75.93;30.00;;;;;;;;;;5052345;28;20108;-88
2021/12/03 16:46:43;;;;;;;75.30;30.25;;;;;;;;;;5053109;28;20017;-88
2021/12/03 16:51:53;;;;;;;56.63;30.63;;;;;;;;;;5052662;28;20122;-88
2021/12/03 16:54:26;;;;;;;65.45;31.25;;;;;;;;;;5055485;28;20016;-89
2021/12/03 16:56:53;;;;;;;57.88;28.67;;;;;;;;;;5051200;28;20017;-89
2021/12/03 16:59:18;;;;;;;68.07;30.67;;;;;;;;;;5050204;28;20021;-89
2021/12/03 17:28:36;;;;;;;58.25;32.72;;;;;;;;;;5052206;28;20024;-89
2021/12/03 17:51:51;;;;;;;60.45;31.90;;;;;;;;;;5071586;28;20458;-90
2021/12/03 17:54:30;;;;;;;84.97;35.72;;;;;;;;;;5053149;28;20035;-89
2021/12/03 17:57:04;;;;;;;57.95;32.13;;;;;;;;;;5052816;28;20415;-89
2021/12/03 17:59:40;;;;;;;74.45;34.78;;;;;;;;;;5061791;28;20079;-88
2021/12/03 18:09:48;;;;;;;52.22;30.70;;;;;;;;;;5070282;28;20035;-88
2021/12/03 18:50:45;;;;;;;66.72;30.17;;;;;;;;;;5050793;28;20099;-88
2021/12/03 18:53:28;;;;;;;68.85;26.98;;;;;;;;;;5049640;28;20032;-88
2021/12/03 18:55:58;;;;;;;72.20;28.80;;;;;;;;;;5032164;28;20119;-88
2021/12/03 18:58:26;;;;;;;59.08;27.70;;;;;;;;;;5031932;28;20399;-88
2021/12/03 19:00:52;;;;;;;76.80;31.08;;;;;;;;;;5053735;28;20078;-89
2021/12/03 19:03:31;;;;;;;66.38;30.00;;;;;;;;;;5063669;28;20021;-89
2021/12/03 19:06:20;;;;;;;57.53;25.20;;;;;;;;;;5050145;28;20024;-90
2021/12/03 19:11:36;;;;;;;56.78;26.67;;;;;;;;;;5050315;28;20021;-90
2021/12/03 19:13:56;;;;;;;80.45;30.50;;;;;;;;;;5049721;28;20043;-89
2021/12/03 19:16:23;;;;;;;87.60;31.42;;;;;;;;;;5032498;28;20560;-90
2021/12/03 19:18:52;;;;;;;80.00;30.90;;;;;;;;;;5032621;28;20036;-90
2021/12/03 19:21:25;;;;;;;76.95;29.13;;;;;;;;;;5033263;28;20071;-91
2021/12/03 19:23:51;;;;;;;88.93;33.38;;;;;;;;;;5034397;28;20388;-90
2021/12/03 19:26:17;;;;;;;97.72;33.88;;;;;;;;;;5032810;28;20126;-90
2021/12/03 19:28:43;;;;;;;85.00;31.92;;;;;;;;;;5032108;28;20048;-90
2021/12/03 19:31:08;;;;;;;126.63;38.08;;;;;;;;;;5032138;28;20390;-90
2021/12/03 19:33:35;;;;;;;104.53;34.03;;;;;;;;;;5031917;28;20029;-90
2021/12/03 19:36:00;;;;;;;112.18;36.22;;;;;;;;;;5050045;28;20025;-89
2021/12/03 19:38:25;;;;;;;83.18;27.90;;;;;;;;;;5032200;28;20036;-90
2021/12/03 19:40:57;;;;;;;112.38;32.53;;;;;;;;;;5050117;28;20100;-89
2021/12/03 19:43:45;;;;;;;103.18;32.38;;;;;;;;;;5033268;28;20764;-90
2021/12/03 19:46:14;;;;;;;107.40;32.95;;;;;;;;;;5050010;28;20021;-90
2021/12/03 19:48:47;;;;;;;62.42;25.05;;;;;;;;;;5032010;28;20029;-90
2021/12/03 19:51:15;;;;;;;87.32;26.92;;;;;;;;;;5032247;28;20032;-90
2021/12/03 19:53:48;;;;;;;91.28;27.35;;;;;;;;;;5032182;28;20564;-90
2021/12/03 19:56:13;;;;;;;81.65;26.90;;;;;;;;;;5032542;28;20021;-89
2021/12/03 19:58:38;;;;;;;85.97;25.05;;;;;;;;;;5034628;28;20802;-89
2021/12/03 20:01:03;;;;;;;76.25;25.13;;;;;;;;;;5051883;28;20487;-89
2021/12/03 20:03:29;;;;;;;92.88;26.60;;;;;;;;;;5051829;28;20042;-89
2021/12/03 20:05:54;;;;;;;88.43;25.93;;;;;;;;;;5069338;28;20060;-89
2021/12/03 20:08:21;;;;;;;86.60;25.23;;;;;;;;;;5069619;28;20289;-89
2021/12/03 20:10:48;;;;;;;100.28;28.13;;;;;;;;;;5069527;28;20027;-89
2021/12/03 20:13:14;;;;;;;79.20;25.77;;;;;;;;;;5069179;28;20037;-89
2021/12/03 20:18:21;;;;;;;96.65;25.65;;;;;;;;;;5070444;28;20024;-89
2021/12/03 20:20:47;;;;;;;62.92;22.17;;;;;;;;;;5073006;28;20560;-89
2021/12/03 20:26:09;;;;;;;86.78;22.83;;;;;;;;;;5073118;28;20016;-89
2021/12/03 20:28:51;;;;;;;65.18;19.25;;;;;;;;;;5055263;28;20391;-89
2021/12/03 20:31:18;;;;;;;83.43;23.70;;;;;;;;;;5055464;28;20143;-89
2021/12/03 20:38:44;;;;;;;64.07;17.88;;;;;;;;;;5073153;28;20033;-90
2021/12/03 20:41:15;;;;;;;73.72;18.33;;;;;;;;;;5073670;28;20021;-89
2021/12/03 20:44:08;;;;;;;84.78;22.25;;;;;;;;;;5072822;28;20025;-89
2021/12/03 20:58:18;;;;;;;80.43;19.63;;;;;;;;;;5010317;28;20096;-89
2021/12/03 21:08:51;;;;;;;75.93;21.40;;;;;;;;;;5052524;28;20032;-90
2021/12/03 21:13:46;;;;;;;75.63;21.73;;;;;;;;;;5053571;28;20040;-91
2021/12/03 21:16:48;;;;;;;86.53;26.52;;;;;;;;;;5052641;28;20088;-91
2021/12/03 21:19:37;;;;;;;62.58;21.25;;;;;;;;;;5034810;28;20481;-90
2021/12/03 21:22:13;;;;;;;98.82;27.38;;;;;;;;;;5053316;28;20370;-90
2021/12/03 21:24:41;;;;;;;110.72;29.33;;;;;;;;;;5034878;28;20046;-89
2021/12/03 21:27:14;;;;;;;85.00;27.10;;;;;;;;;;5034462;28;20392;-90
2021/12/03 21:43:17;;;;;;;103.32;27.83;;;;;;;;;;5052233;28;20059;-90
2021/12/03 21:45:42;;;;;;;93.22;26.95;;;;;;;;;;5051627;28;20112;-90
2021/12/03 21:48:08;;;;;;;76.50;23.48;;;;;;;;;;5051569;28;20413;-90
2021/12/03 21:50:33;;;;;;;63.53;22.52;;;;;;;;;;5034107;28;20025;-90
2021/12/03 21:52:58;;;;;;;84.93;24.23;;;;;;;;;;5033930;28;20137;-90
2021/12/03 21:55:26;;;;;;;108.32;27.50;;;;;;;;;;5033742;28;20029;-90
2021/12/03 21:57:51;;;;;;;71.18;23.05;;;;;;;;;;5055060;28;20025;-89
2021/12/03 22:00:16;;;;;;;108.50;24.85;;;;;;;;;;5035703;28;20043;-90
2021/12/03 22:02:41;;;;;;;95.95;23.92;;;;;;;;;;5051680;28;20025;-90
2021/12/03 22:05:07;;;;;;;88.35;23.15;;;;;;;;;;5033617;28;20052;-90
2021/12/03 22:07:32;;;;;;;61.50;18.60;;;;;;;;;;5033406;28;20463;-90
2021/12/03 22:09:57;;;;;;;111.80;25.47;;;;;;;;;;5033390;28;20059;-90
2021/12/03 22:12:23;;;;;;;86.50;23.13;;;;;;;;;;5033051;28;21137;-90
2021/12/03 22:14:48;;;;;;;60.77;19.37;;;;;;;;;;5033093;28;20634;-90
2021/12/03 22:17:13;;;;;;;73.72;20.30;;;;;;;;;;5033541;28;20287;-90
2021/12/03 22:19:38;;;;;;;69.55;19.30;;;;;;;;;;5033181;28;20024;-90
2021/12/03 22:22:06;;;;;;;72.55;18.52;;;;;;;;;;5051168;28;20450;-90
2021/12/03 22:24:32;;;;;;;81.13;21.33;;;;;;;;;;5032823;28;20029;-90
2021/12/03 22:26:57;;;;;;;91.35;21.83;;;;;;;;;;5051514;28;20480;-90
2021/12/03 22:29:22;;;;;;;76.43;20.05;;;;;;;;;;5051376;28;20799;-90
2021/12/03 22:31:47;;;;;;;74.63;19.85;;;;;;;;;;5033195;28;20389;-90
2021/12/03 22:34:13;;;;;;;67.70;17.87;;;;;;;;;;5033303;28;20025;-90
2021/12/03 22:36:38;;;;;;;64.30;18.75;;;;;;;;;;5034715;28;20299;-90
2021/12/03 22:39:04;;;;;;;63.95;17.13;;;;;;;;;;5033347;28;20131;-90
2021/12/03 22:41:29;;;;;;;82.05;19.38;;;;;;;;;;5050298;28;20578;-90
2021/12/03 22:43:55;;;;;;;67.22;16.15;;;;;;;;;;5032793;28;20172;-90
2021/12/03 22:46:31;;;;;;;76.15;19.73;;;;;;;;;;5032923;28;20087;-90
2021/12/03 22:54:12;;;;;;;65.35;16.90;;;;;;;;;;5051028;28;20056;-90